Startpagina
METAR-TAF:

METAR-TAF

Vliegvelden :

Alice Springs, Australië

breedte: 23-48S, lengte: 133-53E, hoogte: 545 m

Actueel weer

Dit bericht is 41 minuten geleden gemaakt, om 06:30 UTC
Wind 12 kt uit het zuidoosten
Temperatuur 20°C
Vochtigheid 19%
Druk 1023 hPa
Zicht 10 km of meer
geen wolken onder 1500 m en geen cumulonimbus

METAR: YBAS 270630Z 13012KT CAVOK 20/M04 Q1023

Tijdstip: 16:41 (07:11 UTC)

Verwachting

Dit bericht is 2 uur en het 10 minuten geleden gemaakt, om 05:01 UTC
Verwachting geldig van 27 om 06 UTC tot 28 om 06 UTC
Wind 14 kt uit het oostzuidoosten
Zicht 10 km of meer
geen wolken onder 1500 m en geen cumulonimbus
Van 27 om 0800 UTC
Wind 8 kt uit het oostzuidoosten
Zicht 10 km of meer
geen wolken onder 1500 m en geen cumulonimbus
Van 28 om 0000 UTC
Wind 14 kt uit het oostzuidoosten
Zicht 10 km of meer
geen wolken onder 1500 m en geen cumulonimbus

TAF: YBAS 270501Z 2706/2806 12014KT CAVOK FM270800 12008KT CAVOK FM280000 12014KT CAVOK

Waarnemingen en weersverwachtingen van meer dan 4000 vliegvelden (METAR en TAF).

De beschikbare stations zijn de gele en rode punten op de kaart.

Ga met uw muis naar het station om de naam te zien.

Klik dan om waarnemingen en weersverwachtingen te zien.

kaart wijzigen: klik op de groene knoppen met een zwart kruis om in te zoomen, op de groene knop met een streepje om uit te zoomen of op de groene pijlen voor aangrenzende kaarten.


METAR-TAF: